Bethune, SC (29009)

7:56 AM EST on February 06, 2016 (GMT -0500)
King Pond | | Change Station
CLOSE
Current Station
Personal Weather Station
Location: McBee, SC
Elevation: 295 ft
Nearby Weather Stations

Elev 295 ft 34.43 °N, 80.21 °W | Updated 18 seconds ago

Clear
Clear
27.7 °F
Feels Like 28 °F
N
0.0
Wind Variable Wind from NW
Gusts 0.0 mph

Today
High -- | Low -- °F
--% Chance of Precip.
Yesterday
High -- | Low -- °F
Precip. -- in
Pressure 30.42 in
Visibility 10.0 miles
Clouds Clear
Windchill 28 °F
Dew Point 24 °F
Humidity 87%
Rainfall 0.00 in
Snow Depth Not available.
7:15 AM 5:55 PM
Waning Crescent, 6% visible
METAR KHVS 061235Z AUTO 05004KT 10SM CLR 01/M04 A3042 RMK AO2
Pressure 30.42 in
Visibility 10.0 miles
Clouds Clear
Windchill 28 °F
Dew Point 24 °F
Humidity 87%
Rainfall 0.00 in
Snow Depth Not available.
7:15 AM 5:55 PM
Waning Crescent, 6% visible
METAR KHVS 061235Z AUTO 05004KT 10SM CLR 01/M04 A3042 RMK AO2

10-Day Weather Forecast

Almanac

Astronomy

Feb. 06, 2016 Rise Set
Actual Time
Civil Twilight
Nautical Twilight
Astronomical Twilight
Moon
Length of Visible Light
Length of Day
Tomorrow will be .
, % of the Moon is Illuminated

Today's Extremes

State Highs State Lows

Community

WunderPhotos

Upload Photos

1,890,954 photos uploaded!

WunderBlog® & News

Nearby

Air Quality

  Air Quality AQ Index Pollutant
Not available.

Snow Depth

Station Depth Elevation

Earthquake Activity

City Distance Mag. Time & Date
Minimum magnitude displayed is 2.5.

Coastal Water Temperatures

Place Temperature

Stations

Nearby Weather Stations

Station Location Temp. Windchill Dew Point Humidity Wind Precip. Elev Updated Type
                   

Watches & Warnings

There are currently no watches in effect.